sensor_id;sensor_type;location;lat;lon;timestamp;P1;durP1;ratioP1;P2;durP2;ratioP2
13238;SDS011;6686;51.292;4.166;2022-11-11T00:02:38;28.12;;;22.17;;
13238;SDS011;6686;51.292;4.166;2022-11-11T00:05:24;25.20;;;18.87;;
13238;SDS011;6686;51.292;4.166;2022-11-11T00:08:10;23.80;;;17.53;;
13238;SDS011;6686;51.292;4.166;2022-11-11T00:11:03;24.33;;;17.83;;
13238;SDS011;6686;51.292;4.166;2022-11-11T00:13:48;28.00;;;19.23;;
13238;SDS011;6686;51.292;4.166;2022-11-11T00:16:34;23.90;;;17.97;;
13238;SDS011;6686;51.292;4.166;2022-11-11T00:19:20;23.60;;;17.43;;
13238;SDS011;6686;51.292;4.166;2022-11-11T00:22:24;23.43;;;16.77;;
13238;SDS011;6686;51.292;4.166;2022-11-11T00:25:29;28.13;;;18.17;;
13238;SDS011;6686;51.292;4.166;2022-11-11T00:28:15;26.23;;;21.53;;
13238;SDS011;6686;51.292;4.166;2022-11-11T00:31:03;28.50;;;18.20;;
13238;SDS011;6686;51.292;4.166;2022-11-11T00:33:51;23.20;;;17.17;;
13238;SDS011;6686;51.292;4.166;2022-11-11T00:36:35;25.80;;;17.13;;
13238;SDS011;6686;51.292;4.166;2022-11-11T00:39:21;30.83;;;18.17;;
13238;SDS011;6686;51.292;4.166;2022-11-11T00:42:06;25.50;;;18.17;;
13238;SDS011;6686;51.292;4.166;2022-11-11T00:44:53;28.17;;;17.47;;
13238;SDS011;6686;51.292;4.166;2022-11-11T00:47:39;29.57;;;18.67;;
13238;SDS011;6686;51.292;4.166;2022-11-11T00:50:42;31.63;;;17.97;;
13238;SDS011;6686;51.292;4.166;2022-11-11T00:53:44;24.60;;;17.70;;
13238;SDS011;6686;51.292;4.166;2022-11-11T00:56:29;27.83;;;18.93;;
13238;SDS011;6686;51.292;4.166;2022-11-11T00:59:15;26.57;;;18.03;;
13238;SDS011;6686;51.292;4.166;2022-11-11T01:02:01;25.77;;;17.90;;
13238;SDS011;6686;51.292;4.166;2022-11-11T01:04:47;27.40;;;18.20;;
13238;SDS011;6686;51.292;4.166;2022-11-11T01:07:33;26.60;;;17.87;;
13238;SDS011;6686;51.292;4.166;2022-11-11T01:10:19;27.17;;;17.80;;
13238;SDS011;6686;51.292;4.166;2022-11-11T01:13:24;24.90;;;16.87;;
13238;SDS011;6686;51.292;4.166;2022-11-11T01:16:16;27.87;;;18.77;;
13238;SDS011;6686;51.292;4.166;2022-11-11T01:19:07;23.47;;;15.73;;
13238;SDS011;6686;51.292;4.166;2022-11-11T01:21:53;24.50;;;16.53;;
13238;SDS011;6686;51.292;4.166;2022-11-11T01:24:39;24.47;;;16.27;;
13238;SDS011;6686;51.292;4.166;2022-11-11T01:27:25;24.60;;;16.23;;
13238;SDS011;6686;51.292;4.166;2022-11-11T01:30:11;22.30;;;15.27;;
13238;SDS011;6686;51.292;4.166;2022-11-11T01:32:57;22.27;;;14.80;;
13238;SDS011;6686;51.292;4.166;2022-11-11T01:35:43;21.70;;;15.60;;
13238;SDS011;6686;51.292;4.166;2022-11-11T01:38:29;24.10;;;15.40;;
13238;SDS011;6686;51.292;4.166;2022-11-11T01:41:15;22.80;;;15.53;;
13238;SDS011;6686;51.292;4.166;2022-11-11T01:44:39;19.43;;;14.67;;
13238;SDS011;6686;51.292;4.166;2022-11-11T01:47:05;25.33;;;14.57;;
13238;SDS011;6686;51.292;4.166;2022-11-11T01:49:55;20.33;;;14.20;;
13238;SDS011;6686;51.292;4.166;2022-11-11T01:52:39;20.77;;;14.00;;
13238;SDS011;6686;51.292;4.166;2022-11-11T01:55:25;20.70;;;15.03;;
13238;SDS011;6686;51.292;4.166;2022-11-11T01:58:12;23.93;;;15.20;;
13238;SDS011;6686;51.292;4.166;2022-11-11T02:00:57;26.37;;;15.33;;
13238;SDS011;6686;51.292;4.166;2022-11-11T02:03:43;21.67;;;14.77;;
13238;SDS011;6686;51.292;4.166;2022-11-11T02:06:29;20.30;;;14.97;;
13238;SDS011;6686;51.292;4.166;2022-11-11T02:09:15;22.77;;;14.50;;
13238;SDS011;6686;51.292;4.166;2022-11-11T02:12:02;18.70;;;15.03;;
13238;SDS011;6686;51.292;4.166;2022-11-11T02:15:06;25.57;;;16.00;;
13238;SDS011;6686;51.292;4.166;2022-11-11T02:17:52;24.73;;;14.73;;
13238;SDS011;6686;51.292;4.166;2022-11-11T02:20:40;23.12;;;16.62;;
13238;SDS011;6686;51.292;4.166;2022-11-11T02:23:25;20.80;;;14.53;;
13238;SDS011;6686;51.292;4.166;2022-11-11T02:26:10;23.40;;;14.03;;
13238;SDS011;6686;51.292;4.166;2022-11-11T02:28:56;25.70;;;13.77;;
13238;SDS011;6686;51.292;4.166;2022-11-11T02:31:41;20.23;;;13.17;;
13238;SDS011;6686;51.292;4.166;2022-11-11T02:34:30;20.10;;;13.27;;
13238;SDS011;6686;51.292;4.166;2022-11-11T02:37:17;16.87;;;12.93;;
13238;SDS011;6686;51.292;4.166;2022-11-11T02:40:02;19.20;;;12.80;;
13238;SDS011;6686;51.292;4.166;2022-11-11T02:42:48;15.80;;;12.97;;
13238;SDS011;6686;51.292;4.166;2022-11-11T02:45:34;21.33;;;13.37;;
13238;SDS011;6686;51.292;4.166;2022-11-11T02:48:20;17.67;;;13.10;;
13238;SDS011;6686;51.292;4.166;2022-11-11T02:51:06;16.77;;;12.43;;
13238;SDS011;6686;51.292;4.166;2022-11-11T02:53:52;22.27;;;12.43;;
13238;SDS011;6686;51.292;4.166;2022-11-11T02:56:41;18.83;;;12.73;;
13238;SDS011;6686;51.292;4.166;2022-11-11T02:59:45;19.50;;;13.03;;
13238;SDS011;6686;51.292;4.166;2022-11-11T03:02:31;18.80;;;13.10;;
13238;SDS011;6686;51.292;4.166;2022-11-11T03:05:17;16.20;;;12.60;;
13238;SDS011;6686;51.292;4.166;2022-11-11T03:08:03;22.20;;;13.87;;
13238;SDS011;6686;51.292;4.166;2022-11-11T03:10:49;20.70;;;14.20;;
13238;SDS011;6686;51.292;4.166;2022-11-11T03:13:34;21.83;;;13.50;;
13238;SDS011;6686;51.292;4.166;2022-11-11T03:16:20;17.53;;;12.87;;
13238;SDS011;6686;51.292;4.166;2022-11-11T03:19:25;21.70;;;12.97;;
13238;SDS011;6686;51.292;4.166;2022-11-11T03:22:11;18.20;;;13.13;;
13238;SDS011;6686;51.292;4.166;2022-11-11T03:24:57;18.30;;;12.70;;
13238;SDS011;6686;51.292;4.166;2022-11-11T03:28:02;19.17;;;14.38;;
13238;SDS011;6686;51.292;4.166;2022-11-11T03:30:48;17.90;;;14.20;;
13238;SDS011;6686;51.292;4.166;2022-11-11T03:33:34;23.10;;;12.93;;
13238;SDS011;6686;51.292;4.166;2022-11-11T03:36:19;17.77;;;11.90;;
13238;SDS011;6686;51.292;4.166;2022-11-11T03:39:05;14.13;;;10.87;;
13238;SDS011;6686;51.292;4.166;2022-11-11T03:41:51;18.87;;;12.27;;
13238;SDS011;6686;51.292;4.166;2022-11-11T03:44:37;16.97;;;11.27;;
13238;SDS011;6686;51.292;4.166;2022-11-11T03:47:23;17.00;;;12.65;;
13238;SDS011;6686;51.292;4.166;2022-11-11T03:50:09;16.33;;;11.57;;
13238;SDS011;6686;51.292;4.166;2022-11-11T03:52:55;15.93;;;10.83;;
13238;SDS011;6686;51.292;4.166;2022-11-11T03:55:41;16.13;;;11.90;;
13238;SDS011;6686;51.292;4.166;2022-11-11T03:58:26;18.07;;;11.43;;
13238;SDS011;6686;51.292;4.166;2022-11-11T04:01:12;20.00;;;11.80;;
13238;SDS011;6686;51.292;4.166;2022-11-11T04:03:58;20.90;;;13.90;;
13238;SDS011;6686;51.292;4.166;2022-11-11T04:07:03;18.30;;;13.77;;
13238;SDS011;6686;51.292;4.166;2022-11-11T04:10:08;19.33;;;12.63;;
13238;SDS011;6686;51.292;4.166;2022-11-11T04:13:09;17.60;;;11.87;;
13238;SDS011;6686;51.292;4.166;2022-11-11T04:16:13;20.13;;;12.30;;
13238;SDS011;6686;51.292;4.166;2022-11-11T04:18:59;17.83;;;12.40;;
13238;SDS011;6686;51.292;4.166;2022-11-11T04:22:03;20.70;;;15.07;;
13238;SDS011;6686;51.292;4.166;2022-11-11T04:24:49;19.57;;;12.77;;
13238;SDS011;6686;51.292;4.166;2022-11-11T04:27:57;18.23;;;12.30;;
13238;SDS011;6686;51.292;4.166;2022-11-11T04:31:02;17.57;;;12.00;;
13238;SDS011;6686;51.292;4.166;2022-11-11T04:33:48;19.70;;;12.50;;
13238;SDS011;6686;51.292;4.166;2022-11-11T04:36:34;17.40;;;11.80;;
13238;SDS011;6686;51.292;4.166;2022-11-11T04:39:21;18.60;;;12.57;;
13238;SDS011;6686;51.292;4.166;2022-11-11T04:42:25;17.90;;;12.03;;
13238;SDS011;6686;51.292;4.166;2022-11-11T04:45:12;18.10;;;12.33;;
13238;SDS011;6686;51.292;4.166;2022-11-11T04:48:12;18.40;;;14.38;;
13238;SDS011;6686;51.292;4.166;2022-11-11T04:50:59;16.87;;;12.27;;
13238;SDS011;6686;51.292;4.166;2022-11-11T04:53:44;18.57;;;11.90;;
13238;SDS011;6686;51.292;4.166;2022-11-11T04:56:30;16.40;;;11.47;;
13238;SDS011;6686;51.292;4.166;2022-11-11T04:59:32;18.57;;;10.90;;
13238;SDS011;6686;51.292;4.166;2022-11-11T05:02:17;17.33;;;12.50;;
13238;SDS011;6686;51.292;4.166;2022-11-11T05:05:22;17.58;;;12.95;;
13238;SDS011;6686;51.292;4.166;2022-11-11T05:08:08;20.40;;;12.07;;
13238;SDS011;6686;51.292;4.166;2022-11-11T05:10:59;16.67;;;11.23;;
13238;SDS011;6686;51.292;4.166;2022-11-11T05:13:45;15.30;;;11.40;;
13238;SDS011;6686;51.292;4.166;2022-11-11T05:16:54;16.63;;;12.40;;
13238;SDS011;6686;51.292;4.166;2022-11-11T05:19:57;15.27;;;11.57;;
13238;SDS011;6686;51.292;4.166;2022-11-11T05:23:02;14.93;;;10.33;;
13238;SDS011;6686;51.292;4.166;2022-11-11T05:25:48;15.97;;;12.03;;
13238;SDS011;6686;51.292;4.166;2022-11-11T05:28:34;17.00;;;11.50;;
13238;SDS011;6686;51.292;4.166;2022-11-11T05:31:19;15.73;;;10.57;;
13238;SDS011;6686;51.292;4.166;2022-11-11T05:34:05;14.67;;;10.87;;
13238;SDS011;6686;51.292;4.166;2022-11-11T05:36:51;14.50;;;11.10;;
13238;SDS011;6686;51.292;4.166;2022-11-11T05:39:37;15.97;;;10.97;;
13238;SDS011;6686;51.292;4.166;2022-11-11T05:42:22;14.83;;;11.03;;
13238;SDS011;6686;51.292;4.166;2022-11-11T05:45:08;18.97;;;12.27;;
13238;SDS011;6686;51.292;4.166;2022-11-11T05:47:54;15.13;;;11.47;;
13238;SDS011;6686;51.292;4.166;2022-11-11T05:50:40;16.20;;;11.60;;
13238;SDS011;6686;51.292;4.166;2022-11-11T05:53:26;16.90;;;12.87;;
13238;SDS011;6686;51.292;4.166;2022-11-11T05:56:12;17.00;;;11.80;;
13238;SDS011;6686;51.292;4.166;2022-11-11T05:58:58;19.57;;;12.77;;
13238;SDS011;6686;51.292;4.166;2022-11-11T06:01:45;17.50;;;13.38;;
13238;SDS011;6686;51.292;4.166;2022-11-11T06:04:30;18.07;;;12.13;;
13238;SDS011;6686;51.292;4.166;2022-11-11T06:07:16;19.57;;;11.53;;
13238;SDS011;6686;51.292;4.166;2022-11-11T06:10:02;22.70;;;12.27;;
13238;SDS011;6686;51.292;4.166;2022-11-11T06:13:06;20.80;;;11.60;;
13238;SDS011;6686;51.292;4.166;2022-11-11T06:15:55;17.67;;;12.27;;
13238;SDS011;6686;51.292;4.166;2022-11-11T06:18:41;17.23;;;11.17;;
13238;SDS011;6686;51.292;4.166;2022-11-11T06:21:26;14.73;;;11.13;;
13238;SDS011;6686;51.292;4.166;2022-11-11T06:24:12;16.33;;;11.70;;
13238;SDS011;6686;51.292;4.166;2022-11-11T06:26:58;16.70;;;12.50;;
13238;SDS011;6686;51.292;4.166;2022-11-11T06:29:45;14.33;;;11.57;;
13238;SDS011;6686;51.292;4.166;2022-11-11T06:32:31;20.83;;;11.70;;
13238;SDS011;6686;51.292;4.166;2022-11-11T06:35:17;16.60;;;11.20;;
13238;SDS011;6686;51.292;4.166;2022-11-11T06:38:03;20.93;;;11.83;;
13238;SDS011;6686;51.292;4.166;2022-11-11T06:40:48;16.53;;;11.93;;
13238;SDS011;6686;51.292;4.166;2022-11-11T06:43:35;22.23;;;13.03;;
13238;SDS011;6686;51.292;4.166;2022-11-11T06:46:21;19.37;;;12.60;;
13238;SDS011;6686;51.292;4.166;2022-11-11T06:49:07;20.67;;;12.53;;
13238;SDS011;6686;51.292;4.166;2022-11-11T06:51:53;20.80;;;13.23;;
13238;SDS011;6686;51.292;4.166;2022-11-11T06:54:39;19.30;;;14.77;;
13238;SDS011;6686;51.292;4.166;2022-11-11T06:57:25;17.67;;;12.50;;
13238;SDS011;6686;51.292;4.166;2022-11-11T07:00:12;19.57;;;12.17;;
13238;SDS011;6686;51.292;4.166;2022-11-11T07:02:58;15.03;;;11.57;;
13238;SDS011;6686;51.292;4.166;2022-11-11T07:05:45;14.90;;;11.70;;
13238;SDS011;6686;51.292;4.166;2022-11-11T07:08:30;19.10;;;12.13;;
13238;SDS011;6686;51.292;4.166;2022-11-11T07:11:16;14.97;;;11.70;;
13238;SDS011;6686;51.292;4.166;2022-11-11T07:14:02;17.77;;;11.60;;
13238;SDS011;6686;51.292;4.166;2022-11-11T07:16:47;17.43;;;12.23;;
13238;SDS011;6686;51.292;4.166;2022-11-11T07:19:34;15.70;;;11.53;;
13238;SDS011;6686;51.292;4.166;2022-11-11T07:22:20;16.40;;;11.13;;
13238;SDS011;6686;51.292;4.166;2022-11-11T07:25:05;14.80;;;11.83;;
13238;SDS011;6686;51.292;4.166;2022-11-11T07:27:51;16.50;;;13.50;;
13238;SDS011;6686;51.292;4.166;2022-11-11T07:30:37;15.77;;;11.40;;
13238;SDS011;6686;51.292;4.166;2022-11-11T07:33:23;16.53;;;11.67;;
13238;SDS011;6686;51.292;4.166;2022-11-11T07:36:09;16.00;;;11.53;;
13238;SDS011;6686;51.292;4.166;2022-11-11T07:38:55;13.77;;;11.20;;
13238;SDS011;6686;51.292;4.166;2022-11-11T07:41:40;17.70;;;11.83;;
13238;SDS011;6686;51.292;4.166;2022-11-11T07:44:26;17.25;;;12.90;;
13238;SDS011;6686;51.292;4.166;2022-11-11T07:47:12;16.27;;;11.53;;
13238;SDS011;6686;51.292;4.166;2022-11-11T07:49:58;18.57;;;13.40;;
13238;SDS011;6686;51.292;4.166;2022-11-11T07:52:47;20.67;;;12.53;;
13238;SDS011;6686;51.292;4.166;2022-11-11T07:55:33;18.77;;;11.43;;
13238;SDS011;6686;51.292;4.166;2022-11-11T07:58:19;15.97;;;11.23;;
13238;SDS011;6686;51.292;4.166;2022-11-11T08:01:04;18.23;;;10.50;;
13238;SDS011;6686;51.292;4.166;2022-11-11T08:03:50;20.10;;;11.63;;
13238;SDS011;6686;51.292;4.166;2022-11-11T08:06:36;12.57;;;10.80;;
13238;SDS011;6686;51.292;4.166;2022-11-11T08:09:22;15.73;;;11.33;;
13238;SDS011;6686;51.292;4.166;2022-11-11T08:12:08;17.08;;;13.35;;
13238;SDS011;6686;51.292;4.166;2022-11-11T08:15:13;16.43;;;11.87;;
13238;SDS011;6686;51.292;4.166;2022-11-11T08:17:59;15.93;;;12.50;;
13238;SDS011;6686;51.292;4.166;2022-11-11T08:20:45;15.63;;;12.10;;
13238;SDS011;6686;51.292;4.166;2022-11-11T08:23:31;16.20;;;12.10;;
13238;SDS011;6686;51.292;4.166;2022-11-11T08:26:17;15.00;;;12.27;;
13238;SDS011;6686;51.292;4.166;2022-11-11T08:29:03;15.38;;;11.63;;
13238;SDS011;6686;51.292;4.166;2022-11-11T08:31:50;15.83;;;10.60;;
13238;SDS011;6686;51.292;4.166;2022-11-11T08:34:36;13.50;;;10.10;;
13238;SDS011;6686;51.292;4.166;2022-11-11T08:37:22;15.70;;;9.80;;
13238;SDS011;6686;51.292;4.166;2022-11-11T08:40:07;14.90;;;10.00;;
13238;SDS011;6686;51.292;4.166;2022-11-11T08:42:56;14.27;;;9.87;;
13238;SDS011;6686;51.292;4.166;2022-11-11T08:45:42;13.90;;;10.63;;
13238;SDS011;6686;51.292;4.166;2022-11-11T08:48:28;14.57;;;9.43;;
13238;SDS011;6686;51.292;4.166;2022-11-11T08:51:13;13.98;;;10.52;;
13238;SDS011;6686;51.292;4.166;2022-11-11T08:53:59;14.60;;;10.35;;
13238;SDS011;6686;51.292;4.166;2022-11-11T08:56:45;11.83;;;8.43;;
13238;SDS011;6686;51.292;4.166;2022-11-11T08:59:31;11.33;;;8.33;;
13238;SDS011;6686;51.292;4.166;2022-11-11T09:02:17;12.13;;;7.90;;
13238;SDS011;6686;51.292;4.166;2022-11-11T09:05:03;13.23;;;8.07;;
13238;SDS011;6686;51.292;4.166;2022-11-11T09:07:49;11.10;;;7.93;;
13238;SDS011;6686;51.292;4.166;2022-11-11T09:10:34;11.77;;;8.30;;
13238;SDS011;6686;51.292;4.166;2022-11-11T09:13:20;11.50;;;8.13;;
13238;SDS011;6686;51.292;4.166;2022-11-11T09:16:06;14.20;;;8.30;;
13238;SDS011;6686;51.292;4.166;2022-11-11T09:18:52;12.18;;;9.38;;
13238;SDS011;6686;51.292;4.166;2022-11-11T09:21:38;9.93;;;8.00;;
13238;SDS011;6686;51.292;4.166;2022-11-11T09:24:24;13.67;;;7.67;;
13238;SDS011;6686;51.292;4.166;2022-11-11T09:27:10;9.73;;;7.57;;
13238;SDS011;6686;51.292;4.166;2022-11-11T09:29:56;9.37;;;7.57;;
13238;SDS011;6686;51.292;4.166;2022-11-11T09:32:43;10.03;;;7.63;;
13238;SDS011;6686;51.292;4.166;2022-11-11T09:35:28;10.93;;;8.27;;
13238;SDS011;6686;51.292;4.166;2022-11-11T09:38:14;11.87;;;7.27;;
13238;SDS011;6686;51.292;4.166;2022-11-11T09:41:08;10.73;;;8.88;;
13238;SDS011;6686;51.292;4.166;2022-11-11T09:43:56;12.40;;;7.30;;
13238;SDS011;6686;51.292;4.166;2022-11-11T09:46:46;10.07;;;7.37;;
13238;SDS011;6686;51.292;4.166;2022-11-11T09:52:25;8.43;;;6.70;;
13238;SDS011;6686;51.292;4.166;2022-11-11T09:58:16;12.00;;;6.73;;
13238;SDS011;6686;51.292;4.166;2022-11-11T10:01:05;12.37;;;7.27;;
13238;SDS011;6686;51.292;4.166;2022-11-11T10:03:53;11.80;;;6.97;;
13238;SDS011;6686;51.292;4.166;2022-11-11T10:06:36;9.47;;;7.43;;
13238;SDS011;6686;51.292;4.166;2022-11-11T10:09:24;7.90;;;5.70;;
13238;SDS011;6686;51.292;4.166;2022-11-11T10:12:24;11.37;;;6.47;;
13238;SDS011;6686;51.292;4.166;2022-11-11T10:15:10;6.30;;;5.30;;
13238;SDS011;6686;51.292;4.166;2022-11-11T10:18:24;6.57;;;5.53;;
13238;SDS011;6686;51.292;4.166;2022-11-11T10:20:52;9.02;;;7.12;;
13238;SDS011;6686;51.292;4.166;2022-11-11T10:23:35;9.23;;;6.03;;
13238;SDS011;6686;51.292;4.166;2022-11-11T10:26:27;8.57;;;6.70;;
13238;SDS011;6686;51.292;4.166;2022-11-11T10:29:23;10.60;;;6.27;;
13238;SDS011;6686;51.292;4.166;2022-11-11T10:32:15;8.13;;;5.90;;
13238;SDS011;6686;51.292;4.166;2022-11-11T10:35:34;7.30;;;5.57;;
13238;SDS011;6686;51.292;4.166;2022-11-11T10:44:26;7.40;;;5.37;;
13238;SDS011;6686;51.292;4.166;2022-11-11T10:53:29;9.13;;;6.00;;
13238;SDS011;6686;51.292;4.166;2022-11-11T10:56:26;8.27;;;5.37;;
13238;SDS011;6686;51.292;4.166;2022-11-11T10:59:23;7.55;;;6.03;;
13238;SDS011;6686;51.292;4.166;2022-11-11T11:02:20;7.93;;;5.70;;
13238;SDS011;6686;51.292;4.166;2022-11-11T11:05:17;6.83;;;5.40;;
13238;SDS011;6686;51.292;4.166;2022-11-11T11:08:11;8.77;;;5.40;;
13238;SDS011;6686;51.292;4.166;2022-11-11T11:10:56;7.87;;;5.47;;
13238;SDS011;6686;51.292;4.166;2022-11-11T11:13:49;7.47;;;5.37;;
13238;SDS011;6686;51.292;4.166;2022-11-11T11:16:35;7.47;;;6.30;;
13238;SDS011;6686;51.292;4.166;2022-11-11T11:19:25;9.63;;;6.07;;
13238;SDS011;6686;51.292;4.166;2022-11-11T11:22:11;10.80;;;5.43;;
13238;SDS011;6686;51.292;4.166;2022-11-11T11:25:31;7.60;;;5.43;;
13238;SDS011;6686;51.292;4.166;2022-11-11T11:28:03;6.87;;;4.63;;
13238;SDS011;6686;51.292;4.166;2022-11-11T11:31:02;6.90;;;5.17;;
13238;SDS011;6686;51.292;4.166;2022-11-11T11:33:54;5.87;;;4.93;;
13238;SDS011;6686;51.292;4.166;2022-11-11T11:36:39;8.07;;;5.03;;
13238;SDS011;6686;51.292;4.166;2022-11-11T11:39:32;7.70;;;5.47;;
13238;SDS011;6686;51.292;4.166;2022-11-11T11:42:31;10.03;;;5.60;;
13238;SDS011;6686;51.292;4.166;2022-11-11T11:45:23;6.67;;;5.43;;
13238;SDS011;6686;51.292;4.166;2022-11-11T11:48:18;9.00;;;6.00;;
13238;SDS011;6686;51.292;4.166;2022-11-11T11:51:15;7.13;;;5.40;;
13238;SDS011;6686;51.292;4.166;2022-11-11T11:57:11;10.17;;;7.10;;
13238;SDS011;6686;51.292;4.166;2022-11-11T12:01:00;8.17;;;5.00;;
13238;SDS011;6686;51.292;4.166;2022-11-11T12:06:10;7.53;;;5.70;;
13238;SDS011;6686;51.292;4.166;2022-11-11T12:12:19;8.60;;;5.83;;
13238;SDS011;6686;51.292;4.166;2022-11-11T12:24:12;6.17;;;4.80;;
13238;SDS011;6686;51.292;4.166;2022-11-11T12:33:15;5.20;;;4.50;;
13238;SDS011;6686;51.292;4.166;2022-11-11T12:36:16;5.90;;;5.00;;
13238;SDS011;6686;51.292;4.166;2022-11-11T12:44:54;8.67;;;6.73;;
13238;SDS011;6686;51.292;4.166;2022-11-11T12:47:44;7.37;;;6.28;;
13238;SDS011;6686;51.292;4.166;2022-11-11T12:53:27;5.90;;;5.30;;
13238;SDS011;6686;51.292;4.166;2022-11-11T13:05:17;10.43;;;6.57;;
13238;SDS011;6686;51.292;4.166;2022-11-11T13:11:27;11.00;;;6.57;;
13238;SDS011;6686;51.292;4.166;2022-11-11T13:17:11;8.30;;;6.47;;
13238;SDS011;6686;51.292;4.166;2022-11-11T13:19:57;9.53;;;6.00;;
13238;SDS011;6686;51.292;4.166;2022-11-11T13:22:42;7.97;;;6.00;;
13238;SDS011;6686;51.292;4.166;2022-11-11T13:25:29;7.00;;;5.93;;
13238;SDS011;6686;51.292;4.166;2022-11-11T13:31:20;7.53;;;5.57;;
13238;SDS011;6686;51.292;4.166;2022-11-11T13:34:09;8.57;;;6.50;;
13238;SDS011;6686;51.292;4.166;2022-11-11T13:36:54;10.10;;;6.07;;
13238;SDS011;6686;51.292;4.166;2022-11-11T13:39:43;6.07;;;5.20;;
13238;SDS011;6686;51.292;4.166;2022-11-11T13:42:30;6.57;;;5.40;;
13238;SDS011;6686;51.292;4.166;2022-11-11T13:45:28;9.40;;;6.00;;
13238;SDS011;6686;51.292;4.166;2022-11-11T13:48:33;6.13;;;5.00;;
13238;SDS011;6686;51.292;4.166;2022-11-11T13:51:12;7.37;;;4.93;;
13238;SDS011;6686;51.292;4.166;2022-11-11T13:54:22;6.82;;;5.45;;
13238;SDS011;6686;51.292;4.166;2022-11-11T13:59:58;6.15;;;5.55;;
13238;SDS011;6686;51.292;4.166;2022-11-11T14:02:44;6.55;;;5.30;;
13238;SDS011;6686;51.292;4.166;2022-11-11T14:05:29;7.87;;;5.00;;
13238;SDS011;6686;51.292;4.166;2022-11-11T14:11:33;8.53;;;5.07;;
13238;SDS011;6686;51.292;4.166;2022-11-11T14:17:16;8.67;;;5.80;;
13238;SDS011;6686;51.292;4.166;2022-11-11T14:23:40;9.33;;;5.37;;
13238;SDS011;6686;51.292;4.166;2022-11-11T14:26:26;9.33;;;5.37;;
13238;SDS011;6686;51.292;4.166;2022-11-11T14:29:18;8.40;;;5.30;;
13238;SDS011;6686;51.292;4.166;2022-11-11T14:32:06;7.05;;;6.25;;
13238;SDS011;6686;51.292;4.166;2022-11-11T14:47:38;8.57;;;5.43;;
13238;SDS011;6686;51.292;4.166;2022-11-11T14:53:18;6.57;;;5.27;;
13238;SDS011;6686;51.292;4.166;2022-11-11T14:56:03;7.27;;;5.00;;
13238;SDS011;6686;51.292;4.166;2022-11-11T14:58:49;8.53;;;4.90;;
13238;SDS011;6686;51.292;4.166;2022-11-11T15:01:35;7.47;;;5.70;;
13238;SDS011;6686;51.292;4.166;2022-11-11T15:04:21;8.17;;;4.93;;
13238;SDS011;6686;51.292;4.166;2022-11-11T15:07:14;6.73;;;4.73;;
13238;SDS011;6686;51.292;4.166;2022-11-11T15:12:55;7.63;;;5.37;;
13238;SDS011;6686;51.292;4.166;2022-11-11T15:15:48;7.53;;;4.83;;
13238;SDS011;6686;51.292;4.166;2022-11-11T15:18:46;9.57;;;5.77;;
13238;SDS011;6686;51.292;4.166;2022-11-11T15:21:42;8.43;;;5.17;;
13238;SDS011;6686;51.292;4.166;2022-11-11T15:24:34;8.30;;;5.40;;
13238;SDS011;6686;51.292;4.166;2022-11-11T15:27:39;7.33;;;5.40;;
13238;SDS011;6686;51.292;4.166;2022-11-11T15:30:21;7.77;;;5.90;;
13238;SDS011;6686;51.292;4.166;2022-11-11T15:33:16;6.10;;;5.50;;
13238;SDS011;6686;51.292;4.166;2022-11-11T15:39:04;5.80;;;4.40;;
13238;SDS011;6686;51.292;4.166;2022-11-11T15:41:49;5.87;;;4.87;;
13238;SDS011;6686;51.292;4.166;2022-11-11T15:44:35;8.77;;;5.33;;
13238;SDS011;6686;51.292;4.166;2022-11-11T15:47:21;5.10;;;4.60;;
13238;SDS011;6686;51.292;4.166;2022-11-11T15:50:17;9.10;;;5.10;;
13238;SDS011;6686;51.292;4.166;2022-11-11T15:53:03;8.53;;;6.33;;
13238;SDS011;6686;51.292;4.166;2022-11-11T15:55:52;7.30;;;5.73;;
13238;SDS011;6686;51.292;4.166;2022-11-11T15:58:38;6.37;;;5.17;;
13238;SDS011;6686;51.292;4.166;2022-11-11T16:01:24;7.20;;;4.93;;
13238;SDS011;6686;51.292;4.166;2022-11-11T16:04:10;5.33;;;4.80;;
13238;SDS011;6686;51.292;4.166;2022-11-11T16:06:55;5.57;;;4.50;;
13238;SDS011;6686;51.292;4.166;2022-11-11T16:09:41;5.90;;;4.57;;
13238;SDS011;6686;51.292;4.166;2022-11-11T16:12:36;6.87;;;4.90;;
13238;SDS011;6686;51.292;4.166;2022-11-11T16:15:28;6.73;;;4.50;;
13238;SDS011;6686;51.292;4.166;2022-11-11T16:18:28;6.63;;;4.80;;
13238;SDS011;6686;51.292;4.166;2022-11-11T16:23:42;6.23;;;4.77;;
13238;SDS011;6686;51.292;4.166;2022-11-11T16:26:31;7.63;;;5.43;;
13238;SDS011;6686;51.292;4.166;2022-11-11T16:29:14;8.27;;;6.00;;
13238;SDS011;6686;51.292;4.166;2022-11-11T16:32:00;12.97;;;8.83;;
13238;SDS011;6686;51.292;4.166;2022-11-11T16:34:47;16.00;;;12.10;;
13238;SDS011;6686;51.292;4.166;2022-11-11T16:37:48;13.62;;;10.23;;
13238;SDS011;6686;51.292;4.166;2022-11-11T16:43:19;13.82;;;9.82;;
13238;SDS011;6686;51.292;4.166;2022-11-11T16:46:11;11.47;;;7.97;;
13238;SDS011;6686;51.292;4.166;2022-11-11T16:48:58;13.43;;;8.63;;
13238;SDS011;6686;51.292;4.166;2022-11-11T16:51:45;10.23;;;8.50;;
13238;SDS011;6686;51.292;4.166;2022-11-11T16:54:31;14.37;;;9.60;;
13238;SDS011;6686;51.292;4.166;2022-11-11T16:57:16;15.10;;;11.03;;
13238;SDS011;6686;51.292;4.166;2022-11-11T17:00:02;19.40;;;13.87;;
13238;SDS011;6686;51.292;4.166;2022-11-11T17:03:03;22.43;;;15.37;;
13238;SDS011;6686;51.292;4.166;2022-11-11T17:05:47;23.77;;;17.40;;
13238;SDS011;6686;51.292;4.166;2022-11-11T17:08:36;16.40;;;13.07;;
13238;SDS011;6686;51.292;4.166;2022-11-11T17:14:26;16.10;;;10.97;;
13238;SDS011;6686;51.292;4.166;2022-11-11T17:17:11;18.13;;;9.23;;
13238;SDS011;6686;51.292;4.166;2022-11-11T17:20:02;12.03;;;8.93;;
13238;SDS011;6686;51.292;4.166;2022-11-11T17:25:35;13.23;;;10.30;;
13238;SDS011;6686;51.292;4.166;2022-11-11T17:28:21;13.67;;;7.63;;
13238;SDS011;6686;51.292;4.166;2022-11-11T17:31:08;14.53;;;8.60;;
13238;SDS011;6686;51.292;4.166;2022-11-11T17:33:53;11.67;;;8.93;;
13238;SDS011;6686;51.292;4.166;2022-11-11T17:36:39;10.00;;;7.83;;
13238;SDS011;6686;51.292;4.166;2022-11-11T17:39:25;12.23;;;8.53;;
13238;SDS011;6686;51.292;4.166;2022-11-11T17:42:11;11.97;;;9.20;;
13238;SDS011;6686;51.292;4.166;2022-11-11T17:44:56;11.33;;;10.00;;
13238;SDS011;6686;51.292;4.166;2022-11-11T17:47:42;15.03;;;10.40;;
13238;SDS011;6686;51.292;4.166;2022-11-11T17:50:28;14.93;;;10.20;;
13238;SDS011;6686;51.292;4.166;2022-11-11T17:53:14;16.03;;;10.43;;
13238;SDS011;6686;51.292;4.166;2022-11-11T17:56:00;16.70;;;13.20;;
13238;SDS011;6686;51.292;4.166;2022-11-11T17:58:45;15.30;;;12.70;;
13238;SDS011;6686;51.292;4.166;2022-11-11T18:01:32;15.57;;;10.43;;
13238;SDS011;6686;51.292;4.166;2022-11-11T18:04:17;12.67;;;10.67;;
13238;SDS011;6686;51.292;4.166;2022-11-11T18:07:03;12.73;;;10.20;;
13238;SDS011;6686;51.292;4.166;2022-11-11T18:09:49;13.07;;;10.63;;
13238;SDS011;6686;51.292;4.166;2022-11-11T18:12:35;14.03;;;10.30;;
13238;SDS011;6686;51.292;4.166;2022-11-11T18:15:21;15.73;;;11.07;;
13238;SDS011;6686;51.292;4.166;2022-11-11T18:18:07;13.73;;;10.80;;
13238;SDS011;6686;51.292;4.166;2022-11-11T18:20:53;14.17;;;10.67;;
13238;SDS011;6686;51.292;4.166;2022-11-11T18:23:39;13.53;;;9.97;;
13238;SDS011;6686;51.292;4.166;2022-11-11T18:26:25;15.43;;;11.63;;
13238;SDS011;6686;51.292;4.166;2022-11-11T18:29:11;14.77;;;11.27;;
13238;SDS011;6686;51.292;4.166;2022-11-11T18:31:56;15.10;;;12.00;;
13238;SDS011;6686;51.292;4.166;2022-11-11T18:34:43;18.07;;;13.17;;
13238;SDS011;6686;51.292;4.166;2022-11-11T18:37:29;16.90;;;13.40;;
13238;SDS011;6686;51.292;4.166;2022-11-11T18:40:15;14.67;;;11.47;;
13238;SDS011;6686;51.292;4.166;2022-11-11T18:43:00;18.47;;;11.37;;
13238;SDS011;6686;51.292;4.166;2022-11-11T18:45:46;14.57;;;10.47;;
13238;SDS011;6686;51.292;4.166;2022-11-11T18:48:32;12.13;;;9.90;;